Time;durP1;ratioP1;P1;durP2;ratioP2;P2;SDS_P1;SDS_P2;PMS_P1;PMS_P2;Temp;Humidity;BMP_temperature;BMP_pressure;BME280_temperature;BME280_humidity;BME280_pressure;Samples;Min_cycle;Max_cycle;Signal;HPM_P1;HPM_P2
2021/10/07 00:01:32;;;;;;;0.22;0.20;;;;;;;14.85;100.00;100480.34;6340134;22;20048;-44
2021/10/07 00:04:34;;;;;;;1.13;0.38;;;;;;;14.95;100.00;100481.72;6339824;22;20033;-44
2021/10/07 00:07:38;;;;;;;1.65;0.45;;;;;;;14.96;100.00;100483.28;6339818;22;20026;-44
2021/10/07 00:10:41;;;;;;;4.88;0.38;;;;;;;14.95;100.00;100476.13;6339626;22;20038;-44
2021/10/07 00:13:44;;;;;;;4.15;0.90;;;;;;;14.98;100.00;100484.34;6339946;22;20053;-44
2021/10/07 00:16:48;;;;;;;0.38;0.30;;;;;;;14.98;100.00;100467.53;6339670;22;20022;-44
2021/10/07 00:19:50;;;;;;;0.55;0.20;;;;;;;14.92;100.00;100480.69;6340261;22;20387;-44
2021/10/07 00:22:53;;;;;;;1.45;0.47;;;;;;;14.99;100.00;100480.25;6339575;22;20026;-44
2021/10/07 00:25:56;;;;;;;2.67;1.25;;;;;;;15.03;100.00;100474.44;6339561;22;20021;-44
2021/10/07 00:29:07;;;;;;;0.55;0.30;;;;;;;15.02;100.00;100476.50;6338940;22;20026;-44
2021/10/07 00:32:21;;;;;;;0.10;0.10;;;;;;;14.98;100.00;100483.56;6339342;22;20026;-44
2021/10/07 00:42:04;;;;;;;1.45;0.28;;;;;;;15.06;100.00;100477.03;6339627;22;20348;-44
2021/10/07 00:45:07;;;;;;;0.38;0.17;;;;;;;15.06;100.00;100479.06;6338971;22;20068;-44
2021/10/07 00:48:11;;;;;;;0.82;0.40;;;;;;;15.03;100.00;100477.25;6338740;22;20053;-44
2021/10/07 00:51:13;;;;;;;0.45;0.13;;;;;;;15.03;100.00;100478.00;6339409;22;20073;-44
2021/10/07 00:54:20;;;;;;;4.25;0.80;;;;;;;15.00;100.00;100476.22;6339053;22;20095;-44
2021/10/07 00:57:23;;;;;;;4.03;1.00;;;;;;;14.93;100.00;100482.22;6338924;22;20071;-44
2021/10/07 01:00:27;;;;;;;0.25;0.25;;;;;;;14.98;100.00;100478.75;6338989;22;20021;-45
2021/10/07 01:03:33;;;;;;;2.10;0.45;;;;;;;14.99;100.00;100471.84;6339365;22;20037;-44
2021/10/07 01:06:37;;;;;;;0.75;0.30;;;;;;;14.95;100.00;100479.69;6339511;22;20063;-44
2021/10/07 01:09:41;;;;;;;0.20;0.10;;;;;;;14.93;100.00;100476.63;6338917;22;20072;-45
2021/10/07 01:12:44;;;;;;;1.65;0.73;;;;;;;14.82;100.00;100482.06;6339306;22;20504;-44
2021/10/07 01:15:47;;;;;;;0.60;0.50;;;;;;;14.90;100.00;100488.81;6339103;22;20022;-44
2021/10/07 01:18:51;;;;;;;1.88;0.52;;;;;;;14.91;100.00;100484.75;6339196;22;20135;-44
2021/10/07 01:21:57;;;;;;;0.30;0.30;;;;;;;14.68;100.00;100482.91;6338990;22;20362;-44
2021/10/07 01:25:01;;;;;;;1.02;0.32;;;;;;;14.90;100.00;100488.81;6339445;22;20102;-45
2021/10/07 01:28:04;;;;;;;0.63;0.50;;;;;;;14.90;100.00;100483.19;6338701;22;20022;-45
2021/10/07 01:31:08;;;;;;;9.43;1.13;;;;;;;14.95;100.00;100474.09;6338717;22;20136;-44
2021/10/07 01:34:11;;;;;;;0.40;0.13;;;;;;;14.91;100.00;100483.97;6338180;22;20393;-44
2021/10/07 01:37:14;;;;;;;1.17;0.40;;;;;;;14.72;100.00;100479.91;6338711;22;20064;-45
2021/10/07 01:40:18;;;;;;;1.13;0.20;;;;;;;14.73;100.00;100485.00;6337954;22;20021;-44
2021/10/07 01:43:21;;;;;;;0.20;0.10;;;;;;;14.73;100.00;100485.00;6337721;22;20077;-44
2021/10/07 01:46:24;;;;;;;0.30;0.17;;;;;;;14.72;100.00;100483.47;6338251;22;20045;-44
2021/10/07 01:49:27;;;;;;;0.57;0.25;;;;;;;14.67;100.00;100484.16;6338017;22;20477;-44
2021/10/07 01:52:30;;;;;;;0.30;0.13;;;;;;;14.72;100.00;100489.09;6318733;22;20092;-45
2021/10/07 01:55:33;;;;;;;5.05;0.47;;;;;;;14.66;100.00;100491.03;6338374;22;20352;-44
2021/10/07 01:58:36;;;;;;;6.97;0.52;;;;;;;14.65;100.00;100483.88;6337987;22;20351;-44
2021/10/07 02:01:39;;;;;;;1.42;0.52;;;;;;;14.70;100.00;100486.00;6338116;22;20084;-44
2021/10/07 02:04:42;;;;;;;0.10;0.10;;;;;;;14.96;100.00;100480.47;6337238;22;20038;-44
2021/10/07 02:07:45;;;;;;;0.10;0.10;;;;;;;15.01;100.00;100469.31;6337984;22;20026;-44
2021/10/07 02:10:48;;;;;;;0.10;0.10;;;;;;;14.75;100.00;100476.13;6337675;22;20022;-44
2021/10/07 02:13:51;;;;;;;1.13;0.40;;;;;;;14.78;100.00;100480.75;6337153;22;20108;-44
2021/10/07 02:16:54;;;;;;;0.38;0.10;;;;;;;14.76;100.00;100486.84;6335498;22;20091;-44
2021/10/07 02:19:57;;;;;;;0.10;0.10;;;;;;;14.78;100.00;100475.91;6338450;22;20095;-44
2021/10/07 02:23:01;;;;;;;1.95;0.45;;;;;;;14.73;100.00;100467.41;6338521;22;20064;-44
2021/10/07 02:26:03;;;;;;;4.75;0.68;;;;;;;14.79;100.00;100482.31;6338915;22;20021;-44
2021/10/07 02:29:07;;;;;;;3.00;0.95;;;;;;;14.88;100.00;100474.50;6338659;22;20446;-44
2021/10/07 02:32:09;;;;;;;0.20;0.20;;;;;;;14.84;100.00;100473.94;6338939;22;20336;-44
2021/10/07 02:35:14;;;;;;;0.50;0.20;;;;;;;14.73;100.00;100468.19;6338397;22;20025;-45
2021/10/07 02:38:18;;;;;;;4.13;0.20;;;;;;;14.90;100.00;100471.97;6319770;22;20017;-44
2021/10/07 02:41:22;;;;;;;0.60;0.30;;;;;;;14.89;100.00;100464.84;6338710;22;20499;-44
2021/10/07 02:44:25;;;;;;;2.55;0.60;;;;;;;14.87;100.00;100472.97;6338717;22;20400;-44
2021/10/07 02:47:28;;;;;;;3.55;0.50;;;;;;;14.88;100.00;100474.50;6338063;22;20098;-44
2021/10/07 02:50:31;;;;;;;1.00;0.63;;;;;;;14.78;100.00;100475.91;6338546;22;20466;-44
2021/10/07 02:53:35;;;;;;;1.17;0.20;;;;;;;14.75;100.00;100487.34;6338511;22;20033;-45
2021/10/07 02:56:38;;;;;;;5.40;0.35;;;;;;;14.75;100.00;100493.69;6338646;22;20100;-44
2021/10/07 02:59:42;;;;;;;3.58;0.70;;;;;;;14.78;100.00;100498.34;6338314;22;20474;-44
2021/10/07 03:02:46;;;;;;;2.70;0.30;;;;;;;14.77;100.00;100488.38;6338719;22;20102;-44
2021/10/07 03:05:49;;;;;;;1.75;0.63;;;;;;;14.80;100.00;100487.41;6338647;22;20025;-44
2021/10/07 03:08:52;;;;;;;3.05;0.43;;;;;;;14.87;100.00;100501.03;6338712;22;20021;-44
2021/10/07 03:11:54;;;;;;;1.00;0.32;;;;;;;14.88;100.00;100496.94;6338503;22;20029;-44
2021/10/07 03:14:57;;;;;;;0.52;0.30;;;;;;;14.91;100.00;100500.81;6338935;22;20044;-44
2021/10/07 03:18:00;;;;;;;1.20;0.55;;;;;;;14.89;100.00;100508.94;6338319;22;20367;-44
2021/10/07 03:21:03;;;;;;;0.88;0.30;;;;;;;14.84;100.00;100502.00;6338473;22;20064;-44
2021/10/07 03:24:06;;;;;;;1.08;0.30;;;;;;;14.88;100.00;100513.78;6338399;22;20482;-44
2021/10/07 03:27:10;;;;;;;3.28;0.98;;;;;;;14.86;100.00;100515.50;6338890;22;20100;-44
2021/10/07 03:30:13;;;;;;;2.42;0.88;;;;;;;14.84;100.00;100507.59;6338259;22;20043;-44
2021/10/07 03:33:16;;;;;;;0.55;0.30;;;;;;;14.84;100.00;100504.78;6338550;22;20080;-44
2021/10/07 03:36:19;;;;;;;3.30;0.50;;;;;;;14.82;100.00;100514.94;6338692;22;20094;-44
2021/10/07 03:39:22;;;;;;;2.35;0.65;;;;;;;14.78;100.00;100526.38;6338426;22;20022;-44
2021/10/07 03:42:25;;;;;;;0.47;0.22;;;;;;;14.87;100.00;100523.47;6338419;22;20030;-44
2021/10/07 03:45:27;;;;;;;3.42;0.88;;;;;;;14.80;100.00;100518.25;6338257;22;20327;-44
2021/10/07 03:48:30;;;;;;;2.67;1.40;;;;;;;14.78;100.00;100525.59;6338413;22;20064;-44
2021/10/07 03:51:33;;;;;;;7.78;0.55;;;;;;;14.68;100.00;100522.16;6337864;22;20140;-44
2021/10/07 03:54:36;;;;;;;8.85;0.90;;;;;;;14.67;100.00;100522.63;6338229;22;20072;-44
2021/10/07 03:57:39;;;;;;;5.78;0.65;;;;;;;14.67;100.00;100517.03;6338201;22;20076;-44
2021/10/07 04:00:42;;;;;;;0.77;0.55;;;;;;;14.73;100.00;100513.06;6337874;22;20018;-44
2021/10/07 04:03:45;;;;;;;0.82;0.30;;;;;;;14.82;100.00;100503.75;6337907;22;20030;-45
2021/10/07 04:06:48;;;;;;;1.30;0.57;;;;;;;14.77;100.00;100507.25;6338280;22;20022;-44
2021/10/07 04:09:51;;;;;;;1.88;0.50;;;;;;;14.76;100.00;100514.88;6338265;22;20084;-49
2021/10/07 04:12:53;;;;;;;1.70;0.52;;;;;;;14.70;100.00;100519.66;6338456;22;20022;-49
2021/10/07 04:15:56;;;;;;;1.60;0.88;;;;;;;14.73;100.00;100513.06;6338122;22;20450;-48
2021/10/07 04:18:59;;;;;;;1.27;0.63;;;;;;;14.75;100.00;100513.31;6338121;22;20071;-49
2021/10/07 04:22:02;;;;;;;4.60;0.98;;;;;;;14.61;100.00;100511.34;6338199;22;20044;-49
2021/10/07 04:25:06;;;;;;;0.52;0.10;;;;;;;14.72;100.00;100517.13;6338074;22;20087;-49
2021/10/07 04:28:09;;;;;;;5.55;0.73;;;;;;;14.75;100.00;100521.75;6337970;22;20026;-49
2021/10/07 04:31:13;;;;;;;1.75;0.32;;;;;;;14.77;100.00;100508.00;6337674;22;20026;-49
2021/10/07 04:34:15;;;;;;;1.85;0.80;;;;;;;14.74;100.00;100520.22;6339637;22;20470;-49
2021/10/07 04:37:18;;;;;;;2.40;0.77;;;;;;;14.65;100.00;100503.50;6339914;22;20026;-49
2021/10/07 04:40:22;;;;;;;2.10;0.60;;;;;;;14.57;100.00;100505.19;6339528;22;20390;-49
2021/10/07 04:43:25;;;;;;;3.83;0.55;;;;;;;14.43;100.00;100523.56;6339814;22;20033;-49
2021/10/07 04:46:28;;;;;;;0.98;0.80;;;;;;;14.42;100.00;100519.22;6339324;22;20033;-50
2021/10/07 04:49:31;;;;;;;1.42;0.38;;;;;;;14.39;100.00;100522.22;6339250;22;20058;-49
2021/10/07 04:52:34;;;;;;;2.03;1.15;;;;;;;14.47;100.00;100517.00;6339104;22;20025;-49
2021/10/07 04:55:37;;;;;;;0.98;0.55;;;;;;;14.52;100.00;100519.88;6338658;22;20512;-49
2021/10/07 04:58:40;;;;;;;0.75;0.50;;;;;;;14.54;100.00;100522.97;6339191;22;20319;-49
2021/10/07 05:01:43;;;;;;;5.38;0.90;;;;;;;14.57;100.00;100521.22;6338902;22;20339;-48
2021/10/07 05:04:45;;;;;;;3.40;0.50;;;;;;;14.65;100.00;100523.13;6339176;22;20327;-49
2021/10/07 05:07:48;;;;;;;0.85;0.38;;;;;;;14.59;100.00;100519.47;6339342;22;20063;-49
2021/10/07 05:10:52;;;;;;;6.28;1.38;;;;;;;14.57;100.00;100516.41;6339263;22;20354;-49
2021/10/07 05:13:55;;;;;;;3.05;1.05;;;;;;;14.60;100.00;100517.44;6339269;22;20029;-49
2021/10/07 05:16:58;;;;;;;1.13;0.45;;;;;;;14.66;100.00;100530.28;6338998;22;20026;-48
2021/10/07 05:20:05;;;;;;;4.05;0.75;;;;;;;14.70;100.00;100528.06;6339564;22;20093;-48
2021/10/07 05:23:08;;;;;;;1.13;0.90;;;;;;;14.73;100.00;100524.25;6339263;22;20053;-48
2021/10/07 05:26:11;;;;;;;2.00;0.73;;;;;;;14.78;100.00;100531.22;6339422;22;20026;-48
2021/10/07 05:29:13;;;;;;;3.33;1.00;;;;;;;14.77;100.00;100536.03;6338050;22;20022;-48
2021/10/07 05:32:16;;;;;;;1.05;0.22;;;;;;;14.87;100.00;100545.13;6339266;22;20065;-48
2021/10/07 05:35:20;;;;;;;3.38;1.52;;;;;;;14.85;100.00;100554.03;6339222;22;20041;-49
2021/10/07 05:38:23;;;;;;;3.58;0.75;;;;;;;14.87;100.00;100550.72;6339370;22;20018;-49
2021/10/07 05:41:25;;;;;;;3.45;0.45;;;;;;;14.93;100.00;100549.53;6338758;22;20030;-48
2021/10/07 05:44:28;;;;;;;1.33;0.50;;;;;;;14.97;100.00;100550.09;6339122;22;20029;-49
2021/10/07 05:47:31;;;;;;;5.10;0.57;;;;;;;14.98;100.00;100559.31;6339133;22;20532;-49
2021/10/07 05:50:34;;;;;;;0.95;0.30;;;;;;;14.84;100.00;100549.66;6339301;22;20083;-49
2021/10/07 05:53:37;;;;;;;1.65;0.70;;;;;;;14.93;100.00;100555.16;6338899;22;20068;-49
2021/10/07 05:56:39;;;;;;;5.43;0.95;;;;;;;14.94;100.00;100565.09;6339462;22;20068;-48
2021/10/07 05:59:42;;;;;;;3.67;1.00;;;;;;;14.95;100.00;100558.25;6338489;22;20044;-49
2021/10/07 06:02:45;;;;;;;5.88;1.83;;;;;;;14.98;100.00;100562.09;6339087;22;20029;-49
2021/10/07 06:05:48;;;;;;;3.70;1.05;;;;;;;14.96;100.00;100571.03;6338986;22;20519;-49
2021/10/07 06:08:51;;;;;;;3.08;0.90;;;;;;;15.02;100.00;100574.66;6339314;22;20469;-48
2021/10/07 06:11:54;;;;;;;2.53;0.88;;;;;;;15.03;100.00;100567.00;6338896;22;20080;-49
2021/10/07 06:14:56;;;;;;;4.40;0.73;;;;;;;15.00;100.00;100571.56;6338918;22;20053;-48
2021/10/07 06:18:00;;;;;;;2.67;0.95;;;;;;;15.05;100.00;100565.25;6338279;22;20029;-49
2021/10/07 06:21:03;;;;;;;8.43;1.05;;;;;;;15.03;100.00;100581.03;6319656;22;20083;-48
2021/10/07 06:24:06;;;;;;;11.85;1.55;;;;;;;15.09;100.00;100573.47;6339078;22;20045;-49
2021/10/07 06:27:09;;;;;;;3.20;0.95;;;;;;;15.07;100.00;100562.72;6339411;22;20053;-48
2021/10/07 06:30:12;;;;;;;3.55;0.60;;;;;;;15.10;100.00;100566.59;6338745;22;20071;-48
2021/10/07 06:33:15;;;;;;;4.47;0.80;;;;;;;15.07;100.00;100571.16;6338626;22;20068;-48
2021/10/07 06:36:18;;;;;;;2.97;0.65;;;;;;;15.18;100.00;100570.56;6338785;22;20076;-48
2021/10/07 06:39:20;;;;;;;1.45;0.65;;;;;;;15.18;100.00;100560.06;6338570;22;20021;-49
2021/10/07 06:42:23;;;;;;;5.90;0.82;;;;;;;15.19;100.00;100567.25;6338316;22;20025;-49
2021/10/07 06:45:28;;;;;;;0.70;0.38;;;;;;;15.23;100.00;100552.22;6338643;22;20025;-48
2021/10/07 06:48:33;;;;;;;10.05;1.10;;;;;;;15.28;100.00;100559.94;6338718;22;20137;-49
2021/10/07 06:51:36;;;;;;;2.03;0.43;;;;;;;15.42;100.00;100564.72;6338431;22;20071;-49
2021/10/07 06:54:39;;;;;;;3.78;0.52;;;;;;;15.54;100.00;100567.22;6338597;22;20025;-48
2021/10/07 06:57:42;;;;;;;1.85;0.65;;;;;;;15.60;100.00;100570.84;6338453;22;20071;-49
2021/10/07 07:00:45;;;;;;;0.73;0.25;;;;;;;15.66;100.00;100579.31;6338543;22;20114;-49
2021/10/07 07:03:50;;;;;;;3.83;0.73;;;;;;;15.78;100.00;100572.59;6338897;22;20037;-48
2021/10/07 07:06:54;;;;;;;1.15;0.40;;;;;;;15.90;100.00;100574.22;6338002;22;20052;-48
2021/10/07 07:09:56;;;;;;;1.60;0.38;;;;;;;16.00;100.00;100572.81;6338554;22;20098;-48
2021/10/07 07:13:05;;;;;;;1.42;0.82;;;;;;;16.08;100.00;100567.53;6338398;22;20057;-48
2021/10/07 07:16:08;;;;;;;0.57;0.35;;;;;;;16.12;100.00;100571.66;6338383;22;20064;-49
2021/10/07 07:19:12;;;;;;;1.58;0.60;;;;;;;16.21;100.00;100574.31;6338308;22;20403;-48
2021/10/07 07:22:16;;;;;;;10.00;0.65;;;;;;;16.30;100.00;100585.38;6338544;22;20099;-48
2021/10/07 07:25:19;;;;;;;10.32;0.90;;;;;;;16.39;100.00;100582.41;6338346;22;20094;-48
2021/10/07 07:28:24;;;;;;;2.53;0.70;;;;;;;16.41;100.00;100588.28;6337883;22;20458;-49
2021/10/07 07:31:27;;;;;;;1.58;0.45;;;;;;;16.53;100.00;100584.31;6338060;22;20025;-48
2021/10/07 07:34:30;;;;;;;16.58;0.88;;;;;;;16.62;100.00;100597.44;6338317;22;20061;-48
2021/10/07 07:37:33;;;;;;;0.65;0.30;;;;;;;16.69;100.00;100599.78;6338221;22;20083;-48
2021/10/07 07:40:36;;;;;;;2.58;0.63;;;;;;;16.66;100.00;100601.56;6337989;22;20024;-48
2021/10/07 07:43:40;;;;;;;4.18;0.77;;;;;;;16.86;100.00;100599.91;6338469;22;20068;-49
2021/10/07 07:46:43;;;;;;;2.72;0.38;;;;;;;17.00;100.00;100601.81;6338148;22;20026;-49
2021/10/07 07:49:46;;;;;;;2.17;0.47;;;;;;;16.97;100.00;100602.78;6338378;22;20094;-49
2021/10/07 07:52:51;;;;;;;1.85;0.40;;;;;;;17.00;100.00;100608.19;6338037;22;20096;-48
2021/10/07 07:55:55;;;;;;;1.85;0.25;;;;;;;17.05;100.00;100615.13;6338239;22;20097;-48
2021/10/07 07:58:59;;;;;;;2.80;0.50;;;;;;;17.15;100.00;100608.03;6301109;22;20067;-49
2021/10/07 08:02:02;;;;;;;5.47;1.05;;;;;;;17.24;100.00;100611.41;6338262;22;20025;-48
2021/10/07 08:05:06;;;;;;;1.52;0.43;;;;;;;17.38;100.00;100604.06;6338213;22;20041;-49
2021/10/07 08:08:09;;;;;;;1.00;0.40;;;;;;;17.47;100.00;100617.16;6339678;22;20105;-49
2021/10/07 08:11:12;;;;;;;0.98;0.50;;;;;;;17.34;100.00;100623.25;6339692;22;20026;-48
2021/10/07 08:14:14;;;;;;;2.03;0.95;;;;;;;17.32;100.00;100628.59;6340052;22;20029;-48
2021/10/07 08:17:18;;;;;;;1.65;0.43;;;;;;;17.18;100.00;100621.09;6339470;22;20022;-48
2021/10/07 08:20:21;;;;;;;2.60;0.47;;;;;;;17.18;100.00;100615.47;6339807;22;20144;-49
2021/10/07 08:23:28;;;;;;;9.20;1.25;;;;;;;17.24;100.00;100619.06;6339429;22;20028;-48
2021/10/07 08:26:32;;;;;;;3.55;0.73;;;;;;;17.24;100.00;100621.88;6339724;22;20022;-48
2021/10/07 08:29:35;;;;;;;4.90;0.82;;;;;;;17.31;100.00;100613.75;6337335;22;20117;-48
2021/10/07 08:32:39;;;;;;;6.07;0.90;;;;;;;17.39;100.00;100617.63;6338325;22;20029;-48
2021/10/07 08:35:43;;;;;;;10.48;1.35;;;;;;;17.41;100.00;100615.06;6337560;22;20410;-48
2021/10/07 08:38:47;;;;;;;1.58;1.20;;;;;;;17.44;100.00;100614.09;6338114;22;20044;-49
2021/10/07 08:41:50;;;;;;;1.30;1.20;;;;;;;17.36;100.00;100615.06;6337913;22;20044;-48
2021/10/07 08:44:53;;;;;;;3.47;1.10;;;;;;;17.51;100.00;100620.53;6340129;22;20059;-48
2021/10/07 08:47:57;;;;;;;0.75;0.32;;;;;;;17.56;100.00;100620.56;6339421;22;20061;-48
2021/10/07 08:50:59;;;;;;;2.03;0.63;;;;;;;17.60;100.00;100623.16;6339796;22;20038;-48
2021/10/07 08:54:02;;;;;;;3.05;0.70;;;;;;;17.53;100.00;100615.94;6339484;22;20026;-48
2021/10/07 08:57:05;;;;;;;4.72;0.88;;;;;;;17.57;100.00;100622.09;6339553;22;20020;-49
2021/10/07 09:00:12;;;;;;;3.60;1.17;;;;;;;17.72;100.00;100622.69;6339441;22;20021;-48
2021/10/07 09:03:20;;;;;;;4.57;1.05;;;;;;;17.83;100.00;100622.72;6339382;22;20041;-49
2021/10/07 09:06:26;;;;;;;3.22;0.88;;;;;;;17.80;100.00;100640.63;6339604;22;20339;-48
2021/10/07 09:09:31;;;;;;;10.77;1.60;;;;;;;17.82;100.00;100626.06;6339335;22;20462;-49
2021/10/07 09:12:35;;;;;;;3.03;0.90;;;;;;;17.81;100.00;100619.63;6339382;22;20427;-49
2021/10/07 09:15:46;;;;;;;6.43;1.00;;;;;;;17.83;100.00;100636.03;6339238;22;20026;-49
2021/10/07 09:18:49;;;;;;;0.88;0.50;;;;;;;17.80;100.00;100640.63;6339151;22;20079;-49
2021/10/07 09:21:58;;;;;;;3.60;0.43;;;;;;;17.82;100.00;100652.16;6339085;22;20024;-49
2021/10/07 09:25:04;;;;;;;2.05;1.10;;;;;;;17.93;100.00;100654.28;6339038;22;20025;-49
2021/10/07 09:28:08;;;;;;;4.50;1.38;;;;;;;17.88;100.00;100652.97;6339196;22;20025;-49
2021/10/07 09:31:11;;;;;;;2.08;0.65;;;;;;;17.89;100.00;100654.50;6320201;22;20029;-49
2021/10/07 09:34:14;;;;;;;8.63;1.13;;;;;;;17.98;100.00;100643.00;6338943;22;20029;-49
2021/10/07 09:37:23;;;;;;;13.23;1.35;;;;;;;18.03;100.00;100636.63;6338756;22;20080;-49
2021/10/07 09:40:27;;;;;;;3.50;0.90;;;;;;;18.16;100.00;100634.09;6338856;22;20061;-49
2021/10/07 09:43:40;;;;;;;2.50;0.95;;;;;;;18.35;100.00;100636.41;6338801;22;20025;-49
2021/10/07 09:46:43;;;;;;;3.22;0.88;;;;;;;18.45;100.00;100632.13;6338464;22;20497;-49
2021/10/07 09:49:46;;;;;;;2.78;1.50;;;;;;;18.61;100.00;100617.25;6338897;22;20022;-48
2021/10/07 09:52:52;;;;;;;1.00;0.80;;;;;;;18.72;100.00;100622.91;6338797;22;20021;-49
2021/10/07 09:55:55;;;;;;;8.90;0.90;;;;;;;18.73;100.00;100630.84;6339188;22;20087;-48
2021/10/07 09:59:07;;;;;;;8.77;1.45;;;;;;;18.97;100.00;100630.34;6338724;22;20071;-48
2021/10/07 10:02:10;;;;;;;3.15;0.57;;;;;;;19.13;100.00;100635.16;6339033;22;20467;-48
2021/10/07 10:05:14;;;;;;;3.33;0.47;;;;;;;19.15;100.00;100626.19;6338792;22;20043;-48
2021/10/07 10:08:19;;;;;;;1.08;0.40;;;;;;;18.65;100.00;100623.41;6338577;22;20392;-49
2021/10/07 10:11:23;;;;;;;8.63;1.08;;;;;;;18.64;100.00;100621.88;6338463;22;20022;-49
2021/10/07 10:14:26;;;;;;;0.85;0.32;;;;;;;18.63;100.00;100625.97;6338917;22;20148;-48
2021/10/07 10:17:29;;;;;;;3.90;1.40;;;;;;;18.63;100.00;100623.16;6338668;22;20061;-49
2021/10/07 10:20:36;;;;;;;3.05;0.90;;;;;;;18.75;100.00;100628.25;6339107;22;20017;-48
2021/10/07 10:23:40;;;;;;;1.75;0.57;;;;;;;19.10;100.00;100627.72;6338599;22;20082;-48
2021/10/07 10:26:58;;;;;;;1.88;0.30;;;;;;;19.26;100.00;100623.34;6338816;22;20151;-48
2021/10/07 10:30:23;;;;;;;3.25;0.68;;;;;;;19.31;100.00;100617.69;6337826;22;20025;-48
2021/10/07 10:33:32;;;;;;;1.45;0.30;;;;;;;19.23;100.00;100627.97;6338637;22;20026;-48
2021/10/07 10:36:55;;;;;;;2.88;0.95;;;;;;;19.30;100.00;100615.34;6338796;22;20478;-48
2021/10/07 10:40:09;;;;;;;0.88;0.28;;;;;;;19.43;100.00;100616.38;6338361;22;20021;-48
2021/10/07 10:43:17;;;;;;;1.95;0.57;;;;;;;19.50;100.00;100618.69;6338610;22;20021;-48
2021/10/07 10:46:20;;;;;;;6.43;0.63;;;;;;;19.39;100.00;100618.72;6338695;22;20075;-48
2021/10/07 10:49:54;;;;;;;0.75;0.52;;;;;;;19.20;100.00;100614.88;6338840;22;20063;-48
2021/10/07 10:52:58;;;;;;;2.17;0.77;;;;;;;19.02;100.00;100615.44;6338384;22;20021;-49
2021/10/07 10:56:07;;;;;;;3.90;0.93;;;;;;;18.97;100.00;100616.22;6338495;22;20140;-48
2021/10/07 10:59:22;;;;;;;2.28;0.47;;;;;;;19.17;100.00;100621.56;6338347;22;20055;-48
2021/10/07 11:02:25;;;;;;;1.52;0.50;;;;;;;19.31;100.00;100619.75;6319723;22;20025;-48
2021/10/07 11:05:29;;;;;;;2.10;0.50;;;;;;;19.37;100.00;100620.50;6339020;22;20025;-48
2021/10/07 11:08:52;;;;;;;0.90;0.50;;;;;;;19.53;100.00;100623.28;6338467;22;20568;-48
2021/10/07 11:11:55;;;;;;;1.67;0.57;;;;;;;19.87;100.00;100623.16;6338337;22;20038;-48
2021/10/07 11:14:59;;;;;;;3.60;0.30;;;;;;;20.02;100.00;100617.94;6338745;22;20025;-48
2021/10/07 11:18:02;;;;;;;1.25;0.17;;;;;;;20.10;100.00;100624.56;6319495;22;20468;-48
2021/10/07 11:21:20;;;;;;;0.75;0.10;;;;;;;20.33;100.00;100631.66;6338760;22;20144;-48
2021/10/07 11:24:22;;;;;;;1.05;0.73;;;;;;;20.57;100.00;100622.47;6338093;22;20044;-49
2021/10/07 11:27:36;;;;;;;3.13;0.30;;;;;;;20.66;100.00;100636.31;6330796;22;20717;-48
2021/10/07 11:30:42;;;;;;;0.25;0.13;;;;;;;20.78;100.00;100638.53;6295660;22;20764;-49
2021/10/07 11:33:51;;;;;;;3.00;0.28;;;;;;;21.01;100.00;100637.00;6294506;22;20017;-50
2021/10/07 11:36:55;;;;;;;1.30;0.40;;;;;;;21.03;100.00;100637.28;6295746;22;20034;-49
2021/10/07 11:40:19;;;;;;;1.95;0.10;;;;;;;21.20;100.00;100627.88;6294676;22;20014;-49
2021/10/07 11:43:29;;;;;;;0.73;0.10;;;;;;;21.22;100.00;100631.72;6301622;22;20041;-49
2021/10/07 11:46:38;;;;;;;2.65;0.30;;;;;;;21.17;100.00;100635.34;6303649;22;20069;-48
2021/10/07 11:49:41;;;;;;;0.40;0.30;;;;;;;21.27;100.00;100636.53;6305683;22;20804;-49
2021/10/07 11:52:45;;;;;;;5.28;0.57;;;;;;;21.28;100.00;100637.31;6301244;22;20022;-49
2021/10/07 11:55:48;;;;;;;3.15;0.85;;;;;;;21.16;100.00;100639.47;6296973;22;20022;-48
2021/10/07 11:58:56;;;;;;;0.57;0.13;;;;;;;21.05;100.00;100629.03;6299679;22;20002;-49
2021/10/07 12:02:13;;;;;;;3.47;0.55;;;;;;;20.82;100.00;100638.22;6300017;22;20132;-48
2021/10/07 12:05:18;;;;;;;3.25;0.65;;;;;;;20.91;100.00;100633.00;6297759;22;20053;-49
2021/10/07 12:08:25;;;;;;;7.43;1.20;;;;;;;20.90;100.00;100628.63;6296092;22;20342;-49
2021/10/07 12:11:31;;;;;;;1.48;0.22;;;;;;;20.82;100.00;100632.56;6295910;22;20497;-49
2021/10/07 12:14:34;;;;;;;2.30;0.50;;;;;;;20.80;100.00;100635.94;6293462;22;20076;-50
2021/10/07 12:17:38;;;;;;;0.60;0.20;;;;;;;20.79;100.00;100634.38;6291629;22;20524;-48
2021/10/07 12:21:13;;;;;;;3.10;0.60;;;;;;;20.83;100.00;100640.53;6292233;22;20238;-48
2021/10/07 12:24:17;;;;;;;3.83;0.20;;;;;;;20.89;100.00;100644.09;6292408;22;20018;-48
2021/10/07 12:27:31;;;;;;;2.85;0.30;;;;;;;20.78;100.00;100644.19;6289321;22;20080;-48
2021/10/07 12:30:34;;;;;;;1.35;0.30;;;;;;;20.67;100.00;100644.28;6289790;22;20037;-48
2021/10/07 12:33:37;;;;;;;2.35;0.45;;;;;;;20.59;100.00;100648.97;6290809;22;20314;-48
2021/10/07 12:36:46;;;;;;;5.63;0.57;;;;;;;20.63;100.00;100640.97;6290322;22;20183;-48
2021/10/07 12:39:52;;;;;;;5.05;0.50;;;;;;;20.77;100.00;100651.13;6289877;22;20391;-48
2021/10/07 12:42:55;;;;;;;3.83;0.22;;;;;;;20.79;100.00;100651.38;6298202;22;20018;-49
2021/10/07 12:46:06;;;;;;;1.70;0.75;;;;;;;20.79;100.00;100634.38;6307387;22;20064;-49
2021/10/07 12:49:10;;;;;;;1.90;0.28;;;;;;;20.84;100.00;100644.13;6308409;22;20177;-49
2021/10/07 12:52:17;;;;;;;2.22;0.45;;;;;;;20.80;100.00;100641.59;6284808;22;20076;-49
2021/10/07 12:55:20;;;;;;;0.80;0.35;;;;;;;21.06;100.00;100638.28;6303361;22;20042;-49
2021/10/07 12:58:27;;;;;;;4.63;0.50;;;;;;;21.29;100.00;100636.03;6301253;22;20041;-49
2021/10/07 13:01:38;;;;;;;1.83;0.68;;;;;;;21.43;100.00;100651.81;6301168;22;20117;-49
2021/10/07 13:04:44;;;;;;;1.42;0.82;;;;;;;21.43;100.00;100652.59;6308536;22;20018;-49
2021/10/07 13:07:50;;;;;;;6.55;0.20;;;;;;;21.35;100.00;100646.00;6309037;22;20017;-49
2021/10/07 13:10:53;;;;;;;0.57;0.10;;;;;;;21.21;100.00;100643.56;6290232;22;20644;-52
2021/10/07 13:13:59;;;;;;;0.85;0.20;;;;;;;21.04;100.00;100638.84;6309276;22;20120;-52
2021/10/07 13:17:02;;;;;;;2.72;0.20;;;;;;;20.96;100.00;100648.41;6308513;22;20049;-52
2021/10/07 13:20:07;;;;;;;0.57;0.15;;;;;;;20.86;100.00;100639.47;6310355;22;20083;-52
2021/10/07 13:23:10;;;;;;;0.52;0.20;;;;;;;20.73;100.00;100642.16;6309978;22;20009;-50
2021/10/07 13:26:16;;;;;;;1.30;0.80;;;;;;;20.65;100.00;100646.84;6309620;22;20018;-49
2021/10/07 13:29:19;;;;;;;1.92;0.73;;;;;;;20.79;100.00;100650.63;6306255;22;20101;-51
2021/10/07 13:32:24;;;;;;;2.80;0.50;;;;;;;20.89;100.00;100649.75;6306787;22;20021;-46
2021/10/07 13:35:31;;;;;;;7.35;0.73;;;;;;;20.85;100.00;100643.63;6301942;22;20022;-46
2021/10/07 13:38:34;;;;;;;1.38;0.30;;;;;;;20.68;100.00;100637.28;6301587;22;20105;-46
2021/10/07 13:41:37;;;;;;;4.05;0.57;;;;;;;20.55;100.00;100639.22;6301074;22;20045;-46
2021/10/07 13:44:40;;;;;;;3.00;0.50;;;;;;;20.68;100.00;100631.63;6301036;22;20097;-45
2021/10/07 13:47:43;;;;;;;3.55;1.27;;;;;;;20.78;100.00;100632.84;6299366;22;20322;-46
2021/10/07 13:50:47;;;;;;;6.78;1.70;;;;;;;20.85;100.00;100637.94;6301391;22;20021;-46
2021/10/07 13:53:50;;;;;;;2.95;0.80;;;;;;;20.97;100.00;100636.53;6300740;22;20037;-46
2021/10/07 13:56:53;;;;;;;2.75;0.40;;;;;;;21.03;100.00;100634.44;6282008;22;20102;-46
2021/10/07 13:59:56;;;;;;;0.80;0.20;;;;;;;20.96;100.00;100643.50;6301310;22;20449;-46
2021/10/07 14:02:59;;;;;;;0.80;0.10;;;;;;;20.94;100.00;100634.00;6301977;22;20544;-45
2021/10/07 14:06:06;;;;;;;0.82;0.45;;;;;;;21.19;100.00;100631.97;6300820;22;20291;-45
2021/10/07 14:09:09;;;;;;;1.45;0.40;;;;;;;21.44;100.00;100630.69;6302517;22;20026;-44
2021/10/07 14:12:12;;;;;;;0.57;0.10;;;;;;;21.31;100.00;100628.50;6302331;22;20454;-44
2021/10/07 14:15:15;;;;;;;0.77;0.30;;;;;;;21.25;100.00;100633.47;6300749;22;20018;-45